Time;durP1;ratioP1;P1;durP2;ratioP2;P2;SDS_P1;SDS_P2;PMS_P1;PMS_P2;Temp;Humidity;BMP_temperature;BMP_pressure;BME280_temperature;BME280_humidity;BME280_pressure;Samples;Min_cycle;Max_cycle;Signal;HPM_P1;HPM_P2
2023/10/12 00:01:59;;;;;;;0.10;0.10;;;;;;;22.20;73.37;101154.03;5073504;28;20066;-65
2023/10/12 00:04:50;;;;;;;0.10;0.10;;;;;;;22.23;73.59;101145.25;5073409;28;20399;-66
2023/10/12 00:07:16;;;;;;;0.10;0.10;;;;;;;22.17;72.67;101130.00;5055141;28;20415;-64
2023/10/12 00:09:48;;;;;;;0.13;0.13;;;;;;;21.91;73.63;101118.59;5073157;28;20029;-66
2023/10/12 00:12:21;;;;;;;0.10;0.10;;;;;;;21.96;73.38;101128.63;5073800;28;20086;-64
2023/10/12 00:14:47;;;;;;;0.10;0.10;;;;;;;21.34;75.60;101135.91;5073113;28;20051;-66
2023/10/12 00:17:13;;;;;;;0.20;0.20;;;;;;;21.25;75.09;101147.75;5073083;28;20036;-66
2023/10/12 00:19:38;;;;;;;0.10;0.10;;;;;;;21.65;72.77;101147.31;5073184;28;20534;-65
2023/10/12 00:22:11;;;;;;;0.10;0.10;;;;;;;21.32;75.19;101142.75;5074186;28;20032;-65
2023/10/12 00:24:38;;;;;;;0.10;0.10;;;;;;;21.86;72.63;101158.88;5086559;28;20035;-66
2023/10/12 00:27:09;;;;;;;0.20;0.20;;;;;;;22.45;69.46;101156.41;5073502;28;20456;-65
2023/10/12 00:29:39;;;;;;;0.10;0.10;;;;;;;22.90;67.66;101163.19;5072840;28;20035;-65
2023/10/12 00:32:08;;;;;;;0.10;0.10;;;;;;;22.80;66.73;101153.16;5072846;28;20035;-67
2023/10/12 00:34:38;;;;;;;0.20;0.20;;;;;;;22.13;69.96;101161.81;5054237;28;20037;-65
2023/10/12 00:37:06;;;;;;;0.10;0.10;;;;;;;22.98;67.30;101162.47;5072888;28;20044;-64
2023/10/12 00:39:57;;;;;;;0.10;0.10;;;;;;;22.21;69.07;101172.91;5072447;28;20947;-66
2023/10/12 00:42:29;;;;;;;0.10;0.10;;;;;;;22.81;66.16;101182.22;5072559;28;20025;-66
2023/10/12 00:44:54;;;;;;;0.20;0.20;;;;;;;22.22;68.96;101184.69;5073267;28;20023;-65
2023/10/12 00:47:30;;;;;;;0.10;0.10;;;;;;;23.03;66.25;101190.63;5072264;28;20504;-65
2023/10/12 00:49:58;;;;;;;0.20;0.20;;;;;;;23.09;65.17;101186.69;5054383;28;20066;-65
2023/10/12 00:52:26;;;;;;;0.10;0.10;;;;;;;23.22;64.83;101188.66;5054049;28;20128;-65
2023/10/12 00:54:56;;;;;;;0.10;0.10;;;;;;;21.46;69.56;101187.47;5072426;28;20067;-66
2023/10/12 00:57:23;;;;;;;0.10;0.10;;;;;;;22.02;67.84;101185.75;5071036;28;20030;-65
2023/10/12 00:59:51;;;;;;;0.15;0.15;;;;;;;22.29;65.65;101188.69;5085578;28;20048;-65
2023/10/12 01:02:21;;;;;;;0.13;0.13;;;;;;;22.25;66.04;101192.31;5092441;28;20036;-65
2023/10/12 01:04:48;;;;;;;0.22;0.22;;;;;;;22.47;65.05;101198.84;5084922;28;20112;-65
2023/10/12 01:07:19;;;;;;;0.10;0.10;;;;;;;22.39;65.69;101204.16;5072093;28;20036;-66
2023/10/12 01:09:48;;;;;;;0.20;0.20;;;;;;;22.34;67.23;101213.28;5071942;28;20119;-64
2023/10/12 01:12:14;;;;;;;0.20;0.20;;;;;;;21.59;68.21;101225.06;5072616;28;20032;-66
2023/10/12 01:14:47;;;;;;;0.20;0.20;;;;;;;21.49;69.81;101225.97;5071891;28;20029;-65
2023/10/12 01:17:34;;;;;;;0.20;0.20;;;;;;;21.65;67.79;101221.19;5071926;28;20196;-67
2023/10/12 01:20:10;;;;;;;0.28;0.28;;;;;;;21.49;68.47;101225.16;5087464;28;20043;-66
2023/10/12 01:22:39;;;;;;;0.10;0.10;;;;;;;21.65;66.48;101219.28;5052005;28;20029;-65
2023/10/12 01:25:11;;;;;;;0.20;0.20;;;;;;;22.14;65.05;101220.94;5051605;28;20058;-66
2023/10/12 01:27:41;;;;;;;0.10;0.10;;;;;;;21.58;67.62;101224.25;5052007;28;20091;-66
2023/10/12 01:30:19;;;;;;;0.10;0.10;;;;;;;21.35;65.96;101237.88;5066024;28;20036;-65
2023/10/12 01:32:51;;;;;;;0.20;0.20;;;;;;;22.22;63.79;101229.31;5072023;28;20041;-67
2023/10/12 01:35:19;;;;;;;0.20;0.20;;;;;;;22.35;63.91;101235.97;5054443;28;20041;-66
2023/10/12 01:37:48;;;;;;;0.20;0.20;;;;;;;22.12;63.70;101242.31;5053447;28;20538;-66
2023/10/12 01:40:20;;;;;;;0.20;0.20;;;;;;;20.85;68.54;101247.25;5071415;28;20039;-66
2023/10/12 01:45:24;;;;;;;0.20;0.20;;;;;;;20.97;68.06;101248.50;5072094;28;20025;-64
2023/10/12 01:48:07;;;;;;;0.20;0.20;;;;;;;21.28;66.83;101251.88;5071417;28;20412;-65
2023/10/12 01:50:33;;;;;;;0.20;0.20;;;;;;;21.54;66.00;101253.28;5071463;28;20040;-66
2023/10/12 01:53:00;;;;;;;0.17;0.17;;;;;;;21.14;67.24;101247.34;5071379;28;20043;-66
2023/10/12 01:55:29;;;;;;;0.10;0.10;;;;;;;21.22;66.01;101250.28;5071021;28;20037;-65
2023/10/12 01:57:55;;;;;;;0.20;0.20;;;;;;;20.35;70.33;101261.16;5078000;28;20556;-66
2023/10/12 02:00:41;;;;;;;0.17;0.17;;;;;;;21.26;66.12;101254.09;5091168;28;20088;-66
2023/10/12 02:03:17;;;;;;;0.10;0.10;;;;;;;20.63;68.32;101268.69;5092038;28;20055;-66
2023/10/12 02:05:47;;;;;;;0.22;0.22;;;;;;;21.63;65.90;101250.75;5075805;28;20036;-67
2023/10/12 02:08:17;;;;;;;0.10;0.10;;;;;;;22.16;63.11;101248.81;5070791;28;20127;-66
2023/10/12 02:10:55;;;;;;;0.20;0.20;;;;;;;22.02;63.56;101236.94;5070842;28;20074;-64
2023/10/12 02:13:21;;;;;;;0.20;0.20;;;;;;;22.06;64.02;101241.56;5070636;28;20036;-65
2023/10/12 02:15:50;;;;;;;0.20;0.20;;;;;;;22.24;62.98;101256.41;5082423;28;20043;-65
2023/10/12 02:18:17;;;;;;;0.20;0.20;;;;;;;22.04;63.29;101256.63;5075139;28;20365;-66
2023/10/12 02:20:59;;;;;;;0.28;0.28;;;;;;;22.05;63.45;101252.78;5070657;28;20565;-65
2023/10/12 02:26:29;;;;;;;0.20;0.20;;;;;;;22.40;62.02;101249.63;5070655;28;20031;-65
2023/10/12 02:29:01;;;;;;;0.20;0.20;;;;;;;22.42;62.13;101253.72;5070593;28;20035;-65
2023/10/12 02:31:30;;;;;;;0.20;0.20;;;;;;;22.25;62.17;101245.13;5070512;28;20028;-65
2023/10/12 02:33:56;;;;;;;0.20;0.20;;;;;;;22.32;62.68;101251.09;5070413;28;20032;-65
2023/10/12 02:36:26;;;;;;;0.10;0.10;;;;;;;22.36;62.27;101251.31;5051412;28;20421;-64
2023/10/12 02:38:52;;;;;;;0.10;0.10;;;;;;;22.64;62.26;101251.22;5071115;28;20016;-65
2023/10/12 02:41:18;;;;;;;0.20;0.20;;;;;;;22.47;61.69;101255.53;5070351;28;20098;-65
2023/10/12 02:43:50;;;;;;;0.20;0.20;;;;;;;22.35;62.67;101247.75;5070146;28;20068;-66
2023/10/12 02:46:22;;;;;;;0.10;0.10;;;;;;;22.44;62.05;101259.72;5070281;28;20055;-65
2023/10/12 02:48:50;;;;;;;0.20;0.20;;;;;;;22.51;61.94;101256.59;5053520;28;20036;-65
2023/10/12 02:51:17;;;;;;;0.20;0.20;;;;;;;22.51;62.81;101259.31;5070585;28;20028;-66
2023/10/12 02:53:44;;;;;;;0.10;0.10;;;;;;;22.52;61.63;101252.75;5070047;28;20503;-65
2023/10/12 02:56:10;;;;;;;0.20;0.20;;;;;;;22.58;62.24;101254.34;5070068;28;20046;-65
2023/10/12 02:58:35;;;;;;;0.10;0.10;;;;;;;22.59;62.06;101266.94;5082346;28;20100;-65
2023/10/12 03:01:18;;;;;;;0.20;0.20;;;;;;;22.48;62.65;101259.94;5090261;28;20032;-66
2023/10/12 03:03:50;;;;;;;0.20;0.20;;;;;;;22.53;61.84;101257.94;5090176;28;20040;-66
2023/10/12 03:06:21;;;;;;;0.10;0.10;;;;;;;22.75;61.62;101265.63;5070547;28;20043;-65
2023/10/12 03:09:03;;;;;;;0.15;0.15;;;;;;;22.41;61.35;101273.16;5070112;28;20634;-65
2023/10/12 03:11:29;;;;;;;0.20;0.20;;;;;;;22.49;62.19;101269.75;5076664;28;20051;-66
2023/10/12 03:14:00;;;;;;;0.10;0.10;;;;;;;22.53;62.32;101266.16;5078968;28;20506;-66
2023/10/12 03:16:32;;;;;;;0.10;0.10;;;;;;;22.66;61.89;101270.13;5069562;28;20542;-65
2023/10/12 03:19:00;;;;;;;0.20;0.20;;;;;;;22.42;62.27;101278.38;5069969;28;20118;-65
2023/10/12 03:21:27;;;;;;;0.20;0.20;;;;;;;21.90;63.59;101272.94;5069032;28;20020;-66
2023/10/12 03:23:56;;;;;;;0.20;0.20;;;;;;;22.16;62.99;101270.72;5070460;28;20416;-66
2023/10/12 03:26:25;;;;;;;0.15;0.15;;;;;;;22.52;62.18;101260.97;5069649;28;20033;-66
2023/10/12 03:31:35;;;;;;;0.20;0.20;;;;;;;22.54;62.53;101262.28;5069091;28;20033;-66
2023/10/12 03:34:01;;;;;;;0.17;0.17;;;;;;;22.76;61.64;101260.94;5051102;28;20051;-66
2023/10/12 03:36:36;;;;;;;0.17;0.17;;;;;;;22.67;62.34;101264.34;5068332;28;20029;-66
2023/10/12 03:52:27;;;;;;;0.10;0.10;;;;;;;22.35;63.73;101272.41;5006055;28;20057;-66
2023/10/12 03:55:16;;;;;;;0.20;0.20;;;;;;;22.48;62.72;101277.19;5006009;28;20120;-65
2023/10/12 03:57:45;;;;;;;0.10;0.10;;;;;;;22.47;62.83;101280.19;5005302;28;20074;-65
2023/10/12 04:05:46;;;;;;;0.10;0.10;;;;;;;22.63;62.36;101277.00;5005212;28;20042;-65
2023/10/12 04:08:19;;;;;;;0.10;0.10;;;;;;;22.67;61.66;101278.06;5004963;28;20048;-65
2023/10/12 04:18:33;;;;;;;0.20;0.20;;;;;;;22.58;62.13;101266.09;5005752;28;20441;-66
2023/10/12 04:20:59;;;;;;;0.20;0.20;;;;;;;22.55;62.59;101269.41;5020071;28;20032;-66
2023/10/12 04:28:55;;;;;;;0.20;0.20;;;;;;;22.96;61.78;101268.88;5005693;28;20391;-66
2023/10/12 04:31:20;;;;;;;0.10;0.10;;;;;;;22.97;61.85;101267.75;5005800;28;20444;-66
2023/10/12 04:42:02;;;;;;;0.20;0.20;;;;;;;22.62;62.39;101293.75;4989591;28;20396;-67
2023/10/12 04:47:12;;;;;;;0.15;0.15;;;;;;;22.43;62.86;101310.09;5005349;28;20070;-66
2023/10/12 04:54:59;;;;;;;0.20;0.20;;;;;;;22.05;63.78;101307.53;5008651;28;20037;-66
2023/10/12 04:57:26;;;;;;;0.20;0.20;;;;;;;22.10;62.66;101323.91;5009038;28;20091;-65
2023/10/12 05:00:12;;;;;;;0.22;0.22;;;;;;;21.41;65.32;101332.44;4997533;28;20054;-66
2023/10/12 05:13:03;;;;;;;0.10;0.10;;;;;;;21.56;64.84;101348.75;5071656;28;20086;-65
2023/10/12 05:15:39;;;;;;;0.30;0.30;;;;;;;21.50;64.52;101355.34;5071840;28;20020;-66
2023/10/12 05:18:05;;;;;;;0.25;0.25;;;;;;;21.53;63.37;101358.31;5053938;28;20041;-65
2023/10/12 05:20:31;;;;;;;0.10;0.10;;;;;;;21.92;62.10;101363.75;5071859;28;20041;-66
2023/10/12 05:22:58;;;;;;;0.10;0.10;;;;;;;22.17;61.24;101359.97;5071965;28;20041;-66
2023/10/12 05:25:32;;;;;;;0.30;0.30;;;;;;;22.38;60.93;101364.13;5071727;28;20036;-66
2023/10/12 05:28:14;;;;;;;0.20;0.20;;;;;;;22.24;61.13;101363.19;5071007;28;20353;-65
2023/10/12 05:31:09;;;;;;;0.20;0.20;;;;;;;22.25;62.05;101375.78;5070391;28;20500;-66
2023/10/12 05:33:41;;;;;;;0.20;0.20;;;;;;;21.95;63.04;101373.31;5069123;28;20051;-66
2023/10/12 05:36:09;;;;;;;0.20;0.20;;;;;;;21.84;62.91;101381.63;5071416;28;20028;-67
2023/10/12 05:38:49;;;;;;;0.20;0.20;;;;;;;21.98;63.15;101380.94;5070742;28;20039;-66
2023/10/12 05:43:57;;;;;;;0.20;0.20;;;;;;;22.08;62.98;101375.38;5070375;28;20056;-66
2023/10/12 05:46:23;;;;;;;0.20;0.20;;;;;;;22.07;62.14;101374.59;5070570;28;20488;-67
2023/10/12 05:48:51;;;;;;;0.20;0.20;;;;;;;22.21;61.56;101382.94;5070895;28;20032;-65
2023/10/12 05:51:21;;;;;;;0.20;0.20;;;;;;;22.19;61.75;101380.47;5071267;28;20460;-66
2023/10/12 05:53:48;;;;;;;0.20;0.20;;;;;;;22.16;62.04;101372.03;5068777;28;20391;-66
2023/10/12 05:56:17;;;;;;;0.20;0.20;;;;;;;22.28;61.82;101372.44;5070571;28;20044;-68
2023/10/12 05:58:44;;;;;;;0.10;0.10;;;;;;;22.06;62.64;101380.34;5052365;28;20076;-66
2023/10/12 06:01:09;;;;;;;0.10;0.10;;;;;;;22.21;61.56;101386.47;5070808;28;20558;-66
2023/10/12 06:03:46;;;;;;;0.10;0.10;;;;;;;22.21;61.56;101382.94;5070755;28;20125;-67
2023/10/12 06:06:12;;;;;;;0.20;0.20;;;;;;;22.19;62.07;101391.41;5070742;28;20443;-66
2023/10/12 06:08:39;;;;;;;0.30;0.30;;;;;;;22.22;62.07;101390.03;5070286;28;20032;-67
2023/10/12 06:11:07;;;;;;;0.20;0.20;;;;;;;22.26;61.35;101382.88;5070239;28;20353;-66
2023/10/12 06:13:40;;;;;;;0.20;0.20;;;;;;;22.33;62.04;101389.63;5070005;28;20052;-66
2023/10/12 06:16:14;;;;;;;0.13;0.13;;;;;;;22.23;61.70;101387.00;5070309;28;20053;-66
2023/10/12 06:18:44;;;;;;;0.20;0.20;;;;;;;22.43;61.10;101388.72;5053479;28;20040;-66
2023/10/12 06:21:09;;;;;;;0.20;0.20;;;;;;;22.30;61.42;101392.97;5070558;28;20468;-66
2023/10/12 06:23:39;;;;;;;0.20;0.20;;;;;;;22.30;61.25;101390.22;5070373;28;20048;-66
2023/10/12 06:26:08;;;;;;;0.20;0.20;;;;;;;22.40;61.50;101387.38;5070467;28;20396;-65
2023/10/12 06:28:34;;;;;;;0.10;0.10;;;;;;;22.22;62.21;101396.34;5070299;28;20040;-66
2023/10/12 06:31:01;;;;;;;0.13;0.13;;;;;;;22.33;61.97;101402.50;5070040;28;20050;-67
2023/10/12 06:33:26;;;;;;;0.17;0.17;;;;;;;22.35;62.38;101409.34;5070152;28;20476;-66
2023/10/12 06:36:00;;;;;;;0.20;0.20;;;;;;;22.38;61.64;101405.22;5052320;28;20039;-66
2023/10/12 06:38:47;;;;;;;0.20;0.20;;;;;;;22.43;61.82;101405.97;5070094;28;20056;-66
2023/10/12 06:41:57;;;;;;;0.15;0.15;;;;;;;22.59;61.39;101417.59;5070377;28;20385;-67
2023/10/12 06:46:49;;;;;;;0.10;0.10;;;;;;;22.53;61.14;101418.72;5069651;28;19916;-66
2023/10/12 06:49:18;;;;;;;0.15;0.15;;;;;;;22.38;61.92;101414.25;5070202;28;20035;-67
2023/10/12 06:51:53;;;;;;;0.20;0.20;;;;;;;22.52;61.59;101417.13;5070177;28;20587;-66
2023/10/12 06:54:32;;;;;;;0.17;0.17;;;;;;;22.59;61.37;101434.03;5069882;28;20449;-67
2023/10/12 06:57:29;;;;;;;0.10;0.10;;;;;;;22.55;61.49;101425.56;5080188;28;20039;-66
2023/10/12 07:02:29;;;;;;;0.20;0.20;;;;;;;22.57;61.26;101437.09;5069999;28;20032;-66
2023/10/12 07:04:59;;;;;;;0.20;0.20;;;;;;;22.67;61.51;101434.25;5051775;28;20480;-67
2023/10/12 07:07:30;;;;;;;0.10;0.10;;;;;;;22.62;61.26;101437.00;5069832;28;20025;-67
2023/10/12 07:12:48;;;;;;;0.10;0.10;;;;;;;22.63;61.78;101438.66;5069729;28;20033;-67
2023/10/12 07:15:19;;;;;;;0.15;0.15;;;;;;;22.54;61.64;101445.03;5052559;28;20037;-67
2023/10/12 07:17:51;;;;;;;0.10;0.10;;;;;;;22.43;61.90;101448.97;5069778;28;20072;-66
2023/10/12 07:23:34;;;;;;;0.10;0.10;;;;;;;22.62;61.53;101447.19;5069896;28;20037;-67
2023/10/12 07:25:57;;;;;;;0.17;0.17;;;;;;;22.75;61.07;101446.47;5064505;28;20037;-67
2023/10/12 07:28:32;;;;;;;0.20;0.20;;;;;;;23.00;59.83;101457.13;5069555;28;20488;-65
2023/10/12 07:33:58;;;;;;;0.05;0.05;;;;;;;22.72;61.60;101451.72;5069669;28;20434;-66
2023/10/12 07:36:37;;;;;;;0.10;0.10;;;;;;;23.03;60.53;101464.78;5069619;28;20119;-66
2023/10/12 07:39:21;;;;;;;0.10;0.10;;;;;;;23.17;60.70;101460.22;5052061;28;20040;-66
2023/10/12 07:42:00;;;;;;;0.10;0.10;;;;;;;22.76;60.21;101467.28;5069958;28;20056;-66
2023/10/12 07:44:29;;;;;;;0.10;0.10;;;;;;;23.13;60.88;101472.91;5069647;28;20447;-67
2023/10/12 07:46:58;;;;;;;0.10;0.10;;;;;;;23.33;60.02;101467.16;5069590;28;20037;-66
2023/10/12 07:57:22;;;;;;;0.10;0.10;;;;;;;23.52;59.27;101472.69;5069424;28;20587;-66
2023/10/12 08:10:56;;;;;;;0.20;0.20;;;;;;;23.53;59.22;101469.63;5073101;28;20025;-66
2023/10/12 08:15:49;;;;;;;0.10;0.10;;;;;;;23.41;59.74;101472.00;5072959;28;20033;-67
2023/10/12 08:21:01;;;;;;;0.10;0.10;;;;;;;22.83;61.49;101465.03;5010708;28;20065;-66
2023/10/12 08:23:27;;;;;;;0.10;0.10;;;;;;;23.21;60.23;101471.44;5010536;28;20045;-66
2023/10/12 08:26:00;;;;;;;0.10;0.10;;;;;;;23.29;60.01;101473.53;5010228;28;20041;-66
2023/10/12 08:28:26;;;;;;;0.10;0.10;;;;;;;23.35;60.52;101477.88;5010391;28;20137;-66
2023/10/12 08:31:00;;;;;;;0.10;0.10;;;;;;;23.57;59.19;101480.81;5010307;28;20041;-66
2023/10/12 08:38:52;;;;;;;0.10;0.10;;;;;;;23.43;59.98;101479.91;4951253;29;20043;-67
2023/10/12 08:43:59;;;;;;;0.10;0.10;;;;;;;23.38;60.48;101488.22;4951759;28;20061;-66
2023/10/12 08:52:17;;;;;;;0.10;0.10;;;;;;;23.58;60.28;101476.16;4951722;29;20191;-66
2023/10/12 08:54:45;;;;;;;0.10;0.10;;;;;;;23.66;59.21;101479.06;4951624;29;20357;-65
2023/10/12 08:57:29;;;;;;;0.20;0.20;;;;;;;23.70;59.94;101476.53;4954242;28;20487;-66
2023/10/12 09:02:51;;;;;;;0.10;0.10;;;;;;;23.55;59.18;101483.88;4990426;28;20805;-65
2023/10/12 09:05:24;;;;;;;0.13;0.13;;;;;;;23.90;58.87;101482.53;4962630;28;20070;-65
2023/10/12 09:10:55;;;;;;;0.10;0.10;;;;;;;23.47;58.86;101479.03;4970672;28;20057;-67
2023/10/12 09:13:30;;;;;;;0.10;0.10;;;;;;;23.76;59.39;101476.19;5023012;28;20101;-66
2023/10/12 09:15:57;;;;;;;0.10;0.10;;;;;;;23.60;59.29;101472.03;5053970;28;20039;-66
2023/10/12 09:18:30;;;;;;;0.20;0.20;;;;;;;23.64;59.25;101475.81;5070599;28;20029;-67
2023/10/12 09:31:48;;;;;;;0.10;0.10;;;;;;;23.60;59.73;101483.00;5071813;28;20033;-65
2023/10/12 09:36:55;;;;;;;0.10;0.10;;;;;;;23.71;58.26;101484.47;5051705;28;20104;-66
2023/10/12 09:39:34;;;;;;;0.10;0.10;;;;;;;23.63;58.45;101478.81;5051574;28;20112;-66
2023/10/12 09:42:09;;;;;;;0.10;0.10;;;;;;;23.69;58.72;101477.63;5033494;28;20049;-67
2023/10/12 09:44:39;;;;;;;0.10;0.10;;;;;;;23.73;58.62;101479.50;5051357;28;20473;-66
2023/10/12 09:47:09;;;;;;;0.10;0.10;;;;;;;23.15;59.32;101486.31;5057099;28;20040;-66
2023/10/12 09:49:37;;;;;;;0.10;0.10;;;;;;;23.23;59.57;101486.47;5071255;28;20075;-66
2023/10/12 09:52:13;;;;;;;0.25;0.25;;;;;;;23.67;58.38;101491.66;5071296;28;20036;-66
2023/10/12 09:55:14;;;;;;;0.10;0.10;;;;;;;23.90;58.67;101482.53;5071154;28;20032;-66
2023/10/12 09:57:41;;;;;;;0.10;0.10;;;;;;;23.75;58.54;101482.75;5057442;28;20068;-66
2023/10/12 10:00:27;;;;;;;0.10;0.10;;;;;;;23.55;59.08;101477.56;5091737;28;20047;-66
2023/10/12 10:02:58;;;;;;;0.10;0.10;;;;;;;23.60;59.41;101476.69;5091376;28;20040;-66
2023/10/12 10:05:39;;;;;;;0.10;0.10;;;;;;;23.62;59.60;101485.44;5078472;28;20055;-66
2023/10/12 10:08:05;;;;;;;;;;;;;;;23.88;59.86;101489.44;5071679;28;20025;-65
2023/10/12 10:10:34;;;;;;;0.10;0.10;;;;;;;23.73;58.05;101492.41;5052822;28;19912;-66
2023/10/12 10:13:12;;;;;;;0.10;0.10;;;;;;;23.46;58.05;101493.06;5070907;28;20447;-65
2023/10/12 10:15:56;;;;;;;0.10;0.10;;;;;;;23.57;58.93;101485.53;5070612;28;20028;-66
2023/10/12 10:18:28;;;;;;;0.10;0.10;;;;;;;23.43;57.75;101486.22;5070425;28;20484;-66
2023/10/12 10:20:57;;;;;;;0.10;0.10;;;;;;;23.24;58.46;101488.09;5071350;28;20056;-66
2023/10/12 10:23:25;;;;;;;0.10;0.10;;;;;;;22.76;59.21;101482.94;5070855;28;20702;-65
2023/10/12 10:26:13;;;;;;;0.10;0.10;;;;;;;23.14;57.17;101488.22;5070556;28;20119;-67
2023/10/12 10:28:38;;;;;;;0.10;0.10;;;;;;;22.92;57.69;101493.41;5070419;28;20033;-66
2023/10/12 10:31:11;;;;;;;0.10;0.10;;;;;;;23.39;57.39;101492.59;5070260;28;20048;-65
2023/10/12 10:33:37;;;;;;;0.10;0.10;;;;;;;23.09;57.43;101485.56;5070526;28;20028;-65
2023/10/12 10:36:10;;;;;;;0.10;0.10;;;;;;;23.09;59.41;101488.31;5070966;28;20494;-66
2023/10/12 10:38:46;;;;;;;0.10;0.10;;;;;;;22.83;59.01;101484.22;5070299;28;20036;-66
2023/10/12 10:44:00;;;;;;;0.10;0.10;;;;;;;23.48;57.53;101486.19;5079223;28;20047;-67
2023/10/12 10:46:26;;;;;;;0.20;0.20;;;;;;;23.39;57.58;101496.16;5070199;28;20074;-66
2023/10/12 10:48:53;;;;;;;0.10;0.10;;;;;;;23.31;57.90;101496.03;5070360;28;20041;-67
2023/10/12 10:51:19;;;;;;;0.10;0.10;;;;;;;23.44;56.99;101487.88;5070634;28;20031;-66
2023/10/12 10:53:52;;;;;;;0.15;0.15;;;;;;;23.42;56.82;101489.28;5050466;28;20045;-65
2023/10/12 10:56:32;;;;;;;0.13;0.13;;;;;;;23.32;56.97;101490.22;5049916;28;20035;-66
2023/10/12 10:59:01;;;;;;;0.10;0.10;;;;;;;23.44;56.33;101495.28;5065245;28;20037;-66
2023/10/12 11:01:26;;;;;;;0.15;0.15;;;;;;;23.40;56.68;101488.75;5070089;28;20460;-66
2023/10/12 11:03:52;;;;;;;0.10;0.10;;;;;;;23.24;57.27;101493.59;5070014;28;20028;-66
2023/10/12 11:06:21;;;;;;;0.10;0.10;;;;;;;23.10;57.57;101489.91;5029407;28;20029;-65
2023/10/12 11:09:05;;;;;;;0.10;0.10;;;;;;;23.40;58.22;101491.50;5030294;28;20069;-66
2023/10/12 11:11:37;;;;;;;0.10;0.10;;;;;;;23.49;57.18;101481.47;5029972;28;20168;-66
2023/10/12 11:14:08;;;;;;;0.10;0.10;;;;;;;23.64;57.53;101474.97;5029969;28;20030;-67
2023/10/12 11:16:34;;;;;;;0.10;0.10;;;;;;;23.60;57.69;101473.94;5042789;28;20063;-66
2023/10/12 11:19:00;;;;;;;0.10;0.10;;;;;;;23.77;57.41;101469.56;5049817;28;20065;-66
2023/10/12 11:21:26;;;;;;;0.10;0.10;;;;;;;23.24;57.20;101470.81;5049792;28;20029;-67
2023/10/12 11:24:09;;;;;;;0.20;0.20;;;;;;;23.11;57.04;101482.53;5050182;28;20188;-65
2023/10/12 11:26:51;;;;;;;0.10;0.10;;;;;;;23.44;56.23;101468.66;5049720;28;20041;-66
2023/10/12 11:29:16;;;;;;;0.15;0.15;;;;;;;23.05;57.90;101468.06;5049681;28;20064;-64
2023/10/12 11:31:46;;;;;;;0.10;0.10;;;;;;;23.16;56.53;101466.00;5049869;28;20109;-65
2023/10/12 11:34:23;;;;;;;0.17;0.17;;;;;;;23.00;57.63;101465.38;5049507;28;20040;-66
2023/10/12 11:36:57;;;;;;;0.05;0.05;;;;;;;23.31;57.63;101460.34;5049920;28;20108;-64
2023/10/12 11:39:28;;;;;;;0.10;0.10;;;;;;;23.57;57.37;101452.59;5033795;28;20037;-66
2023/10/12 11:42:12;;;;;;;;;;;;;;;23.78;56.32;101452.00;5051817;28;20021;-66
2023/10/12 11:44:42;;;;;;;0.20;0.20;;;;;;;23.38;58.38;101450.66;5053548;28;19923;-66
2023/10/12 11:47:08;;;;;;;0.10;0.10;;;;;;;23.14;58.95;101451.75;5053614;28;20040;-68
2023/10/12 11:49:49;;;;;;;0.10;0.10;;;;;;;23.48;58.49;101447.78;5053729;28;20048;-68
2023/10/12 11:52:22;;;;;;;0.10;0.10;;;;;;;23.07;59.01;101443.91;5053620;28;20132;-67
2023/10/12 11:54:48;;;;;;;0.10;0.10;;;;;;;22.62;60.32;101447.97;5053606;28;20082;-67
2023/10/12 11:57:13;;;;;;;0.10;0.10;;;;;;;22.30;59.70;101436.78;5054854;28;20057;-66
2023/10/12 11:59:39;;;;;;;0.10;0.10;;;;;;;21.92;62.14;101443.13;5073150;28;20057;-66
2023/10/12 12:02:09;;;;;;;0.10;0.10;;;;;;;22.47;61.00;101436.31;5073479;28;20455;-65
2023/10/12 12:04:40;;;;;;;0.10;0.10;;;;;;;22.46;60.94;101441.00;5067685;28;20795;-66
2023/10/12 12:07:10;;;;;;;0.10;0.10;;;;;;;22.43;61.20;101429.78;5053528;28;20034;-65
2023/10/12 12:09:40;;;;;;;0.10;0.10;;;;;;;22.61;61.56;101427.19;5053180;28;20111;-65
2023/10/12 12:12:07;;;;;;;0.10;0.10;;;;;;;22.13;62.09;101430.09;5053694;28;20031;-66
2023/10/12 12:14:34;;;;;;;0.20;0.20;;;;;;;22.36;60.98;101429.34;5053100;28;20116;-65
2023/10/12 12:17:01;;;;;;;0.10;0.10;;;;;;;22.24;61.56;101426.16;5052987;28;20052;-66
2023/10/12 12:19:26;;;;;;;0.10;0.10;;;;;;;22.35;60.66;101422.22;5053025;28;20108;-65
2023/10/12 12:21:52;;;;;;;0.10;0.10;;;;;;;22.03;62.99;101420.06;5053077;28;20040;-65
2023/10/12 12:26:49;;;;;;;0.10;0.10;;;;;;;22.24;61.68;101417.94;5053102;28;20060;-65
2023/10/12 12:29:16;;;;;;;0.15;0.15;;;;;;;22.37;60.43;101415.34;5068693;28;20033;-66
2023/10/12 12:31:42;;;;;;;0.10;0.10;;;;;;;22.43;60.83;101418.84;5072845;28;20057;-67
2023/10/12 12:34:07;;;;;;;0.20;0.20;;;;;;;22.55;59.84;101424.75;5072267;28;20044;-66
2023/10/12 12:36:33;;;;;;;0.20;0.20;;;;;;;22.09;61.62;101423.56;5072629;28;20040;-65
2023/10/12 12:41:24;;;;;;;0.20;0.20;;;;;;;22.68;60.57;101418.63;5072515;28;20033;-66
2023/10/12 12:43:51;;;;;;;0.10;0.10;;;;;;;22.51;59.96;101413.56;5072435;28;20032;-65
2023/10/12 12:46:17;;;;;;;0.13;0.13;;;;;;;22.49;60.15;101415.78;5072523;28;20119;-65
2023/10/12 12:48:48;;;;;;;0.20;0.20;;;;;;;22.47;60.36;101411.69;5072349;28;20041;-65
2023/10/12 12:51:15;;;;;;;;;;;;;;;22.55;59.80;101402.81;5073810;28;20028;-66
2023/10/12 12:53:42;;;;;;;0.20;0.20;;;;;;;22.45;60.65;101405.66;5072292;28;20325;-66
2023/10/12 12:56:10;;;;;;;0.17;0.17;;;;;;;22.07;61.27;101407.44;5072280;28;20032;-66
2023/10/12 12:58:36;;;;;;;0.20;0.20;;;;;;;22.12;61.11;101414.78;5084734;28;20463;-67
2023/10/12 13:01:03;;;;;;;0.20;0.20;;;;;;;21.92;62.42;101412.19;5092817;28;20452;-66
2023/10/12 13:03:28;;;;;;;0.10;0.10;;;;;;;21.87;62.63;101413.09;5092355;28;20541;-66
2023/10/12 13:05:54;;;;;;;0.10;0.10;;;;;;;22.20;61.18;101404.03;5075963;28;20029;-66
2023/10/12 13:08:20;;;;;;;0.10;0.10;;;;;;;21.90;62.08;101404.28;5072208;28;20088;-66
2023/10/12 13:10:46;;;;;;;0.20;0.20;;;;;;;21.88;62.30;101405.69;5072053;28;20036;-66
2023/10/12 13:13:12;;;;;;;0.20;0.20;;;;;;;21.67;62.67;101408.56;5071909;28;20039;-66
2023/10/12 13:15:42;;;;;;;0.20;0.20;;;;;;;20.99;65.77;101398.56;5072106;28;20024;-66
2023/10/12 13:18:14;;;;;;;0.10;0.10;;;;;;;21.26;65.06;101393.50;5072272;28;20067;-64
2023/10/12 13:20:46;;;;;;;0.10;0.10;;;;;;;21.65;63.30;101394.34;5071889;28;20102;-65
2023/10/12 13:23:21;;;;;;;0.13;0.13;;;;;;;21.31;64.83;101404.41;5071810;28;20045;-66
2023/10/12 13:25:46;;;;;;;0.13;0.13;;;;;;;20.99;66.31;101401.28;5071817;28;20037;-65
2023/10/12 13:28:12;;;;;;;0.20;0.20;;;;;;;21.21;65.26;101404.47;5071783;28;20087;-66
2023/10/12 13:30:37;;;;;;;0.20;0.20;;;;;;;20.88;67.18;101405.97;5071346;28;20032;-66
2023/10/12 13:33:05;;;;;;;0.20;0.20;;;;;;;21.52;65.28;101394.97;5071933;28;20036;-66
2023/10/12 13:35:32;;;;;;;0.10;0.10;;;;;;;21.93;63.28;101394.69;5071499;28;20039;-67
2023/10/12 13:38:05;;;;;;;0.10;0.10;;;;;;;21.49;64.40;101392.00;5052573;28;20041;-65
2023/10/12 13:40:30;;;;;;;0.20;0.20;;;;;;;21.13;66.37;101396.84;5071582;28;20492;-65
2023/10/12 13:43:06;;;;;;;0.20;0.20;;;;;;;20.87;66.77;101387.13;5053516;28;20035;-65
2023/10/12 13:45:35;;;;;;;0.10;0.10;;;;;;;20.16;69.75;101386.50;5071140;28;20032;-66
2023/10/12 13:48:01;;;;;;;0.10;0.10;;;;;;;20.92;67.52;101389.81;5053734;28;20434;-66
2023/10/12 13:50:26;;;;;;;0.20;0.20;;;;;;;20.95;66.72;101373.69;5071226;28;20043;-65
2023/10/12 13:52:53;;;;;;;0.10;0.10;;;;;;;20.39;68.31;101369.53;5071137;28;20116;-66
2023/10/12 13:55:18;;;;;;;0.20;0.20;;;;;;;20.76;68.11;101359.03;5071319;28;20037;-66
2023/10/12 13:57:50;;;;;;;0.10;0.10;;;;;;;21.26;66.22;101363.44;5071010;28;20491;-67
2023/10/12 14:00:25;;;;;;;0.20;0.20;;;;;;;21.50;64.54;101367.09;5036521;28;20049;-66
2023/10/12 14:02:56;;;;;;;0.10;0.10;;;;;;;21.65;64.55;101363.44;5013435;28;20543;-65
2023/10/12 14:05:27;;;;;;;0.10;0.10;;;;;;;21.29;65.52;101368.31;5047174;28;20044;-66
2023/10/12 14:07:58;;;;;;;0.13;0.13;;;;;;;21.42;65.14;101373.19;5051255;28;20051;-65
2023/10/12 14:10:24;;;;;;;0.20;0.20;;;;;;;21.48;64.41;101354.81;5051199;28;20033;-66
2023/10/12 14:12:53;;;;;;;0.10;0.10;;;;;;;20.65;68.05;101332.88;5050672;28;20086;-65